Time;durP1;ratioP1;P1;durP2;ratioP2;P2;SDS_P1;SDS_P2;PMS_P1;PMS_P2;Temp;Humidity;BMP_temperature;BMP_pressure;BME280_temperature;BME280_humidity;BME280_pressure;Samples;Min_cycle;Max_cycle;Signal;HPM_P1;HPM_P2
2022/04/12 00:00:44;;;;;;;3.25;2.80;;;;;;;5.31;40.34;94273.72;4925632;28;20035;-78
2022/04/12 00:03:11;;;;;;;6.13;3.75;;;;;;;5.25;40.63;94266.88;4923339;28;20046;-74
2022/04/12 00:05:39;;;;;;;5.18;2.78;;;;;;;5.47;40.53;94271.81;4928658;28;20118;-79
2022/04/12 00:08:05;;;;;;;5.07;3.65;;;;;;;5.63;40.14;94269.91;4925053;28;20028;-78
2022/04/12 00:10:32;;;;;;;5.80;2.95;;;;;;;5.75;40.09;94265.09;4921910;28;20030;-76
2022/04/12 00:12:59;;;;;;;4.50;2.70;;;;;;;5.75;39.57;94263.25;4931513;28;20106;-78
2022/04/12 00:15:25;;;;;;;8.82;3.58;;;;;;;5.96;39.45;94264.75;4926943;28;20571;-78
2022/04/12 00:20:36;;;;;;;3.42;2.80;;;;;;;5.92;39.00;94224.06;4931902;28;20070;-79
2022/04/12 00:23:07;;;;;;;3.92;2.90;;;;;;;6.09;39.25;94251.97;4926466;28;20130;-78
2022/04/12 00:25:33;;;;;;;8.32;2.85;;;;;;;6.19;39.54;94247.44;4947099;28;20043;-77
2022/04/12 00:27:59;;;;;;;7.28;3.22;;;;;;;6.13;38.80;94226.59;4925021;28;20756;-78
2022/04/12 00:30:27;;;;;;;6.43;3.40;;;;;;;5.94;39.04;94234.38;4943831;28;20031;-78
2022/04/12 00:32:52;;;;;;;5.38;3.60;;;;;;;5.93;39.38;94223.03;4930022;28;20101;-78
2022/04/12 00:35:19;;;;;;;4.00;2.83;;;;;;;6.00;38.96;94220.88;4920879;28;20035;-78
2022/04/12 00:37:46;;;;;;;6.22;3.15;;;;;;;6.11;38.93;94228.72;4928368;28;20042;-76
2022/04/12 00:40:13;;;;;;;6.38;3.45;;;;;;;6.17;38.68;94243.50;4930386;29;20079;-77
2022/04/12 00:42:39;;;;;;;5.18;3.15;;;;;;;6.12;38.94;94243.50;4928424;28;20123;-76
2022/04/12 00:45:05;;;;;;;7.32;3.08;;;;;;;6.13;39.12;94226.59;4929529;28;20557;-78
2022/04/12 00:47:30;;;;;;;6.35;3.38;;;;;;;6.16;38.57;94215.53;4929372;28;20524;-77
2022/04/12 00:49:56;;;;;;;4.65;2.60;;;;;;;6.22;38.53;94219.69;4928209;28;20027;-76
2022/04/12 00:52:22;;;;;;;5.43;3.08;;;;;;;6.07;38.75;94227.72;4923938;28;20043;-78
2022/04/12 00:54:49;;;;;;;3.22;2.60;;;;;;;5.89;38.76;94211.44;4922185;28;20028;-77
2022/04/12 00:57:15;;;;;;;4.25;3.30;;;;;;;5.98;38.78;94223.00;4929087;28;20497;-77
2022/04/12 00:59:43;;;;;;;7.25;3.05;;;;;;;6.10;38.99;94232.44;4925797;28;20175;-76
2022/04/12 01:02:09;;;;;;;4.68;3.60;;;;;;;6.08;38.52;94223.97;4930018;28;20040;-78
2022/04/12 01:04:34;;;;;;;7.07;3.35;;;;;;;5.96;38.97;94227.78;4927636;28;20031;-77
2022/04/12 01:07:00;;;;;;;5.45;2.90;;;;;;;5.99;38.80;94227.22;4922053;28;20333;-77
2022/04/12 01:09:26;;;;;;;4.40;2.65;;;;;;;5.94;38.88;94229.09;4927542;28;20036;-78
2022/04/12 01:11:56;;;;;;;6.20;3.78;;;;;;;5.85;39.28;94236.81;4930762;28;20040;-77
2022/04/12 01:14:23;;;;;;;7.18;4.13;;;;;;;5.76;39.41;94232.38;4918597;28;20043;-77
2022/04/12 01:16:49;;;;;;;11.80;3.30;;;;;;;5.71;39.65;94209.44;4932725;28;20210;-78
2022/04/12 01:19:15;;;;;;;7.07;3.35;;;;;;;5.88;39.51;94217.78;4919730;29;20067;-78
2022/04/12 01:21:54;;;;;;;4.30;2.85;;;;;;;6.05;39.37;94229.81;4928757;28;20027;-78
2022/04/12 01:24:20;;;;;;;4.85;2.65;;;;;;;5.79;38.93;94193.03;4918404;28;20052;-78
2022/04/12 01:26:46;;;;;;;3.92;3.30;;;;;;;5.96;39.27;94198.72;4931619;28;20490;-78
2022/04/12 01:29:12;;;;;;;4.57;2.92;;;;;;;6.19;38.67;94226.31;4925185;28;20049;-77
2022/04/12 01:31:37;;;;;;;4.25;3.08;;;;;;;5.85;38.93;94215.69;4926823;28;20070;-78
2022/04/12 01:34:03;;;;;;;6.03;2.95;;;;;;;5.98;39.13;94214.28;4928505;28;20035;-78
2022/04/12 01:36:28;;;;;;;4.50;2.85;;;;;;;6.22;38.82;94230.25;4921660;28;20597;-77
2022/04/12 01:38:54;;;;;;;7.93;4.00;;;;;;;5.94;38.85;94211.41;4932056;28;20500;-77
2022/04/12 01:41:19;;;;;;;4.50;2.70;;;;;;;5.98;38.53;94206.34;4920985;28;20039;-78
2022/04/12 01:43:44;;;;;;;6.47;3.45;;;;;;;6.02;38.46;94198.69;4927936;28;20131;-78
2022/04/12 01:46:10;;;;;;;5.35;3.40;;;;;;;6.05;38.49;94209.50;4924826;29;20450;-78
2022/04/12 01:48:35;;;;;;;8.15;3.55;;;;;;;6.09;38.80;94217.66;4931067;28;20264;-78
2022/04/12 01:51:01;;;;;;;4.57;2.67;;;;;;;5.99;38.81;94231.72;4924737;28;20023;-78
2022/04/12 01:53:26;;;;;;;4.50;3.15;;;;;;;6.02;38.91;94225.09;4943714;28;20044;-78
2022/04/12 01:55:51;;;;;;;4.43;3.42;;;;;;;5.98;38.87;94227.47;4927119;28;20383;-78
2022/04/12 01:58:17;;;;;;;5.30;3.20;;;;;;;6.00;39.13;94209.53;4924019;28;20402;-79
2022/04/12 02:00:43;;;;;;;6.22;3.05;;;;;;;6.00;38.94;94209.53;4927396;28;20035;-79
2022/04/12 02:03:09;;;;;;;8.07;3.30;;;;;;;5.94;39.00;94224.59;4927463;28;20059;-77
2022/04/12 02:05:35;;;;;;;9.07;3.70;;;;;;;5.71;39.34;94219.22;4929189;28;20063;-78
2022/04/12 02:08:01;;;;;;;6.80;3.30;;;;;;;5.84;39.22;94216.75;4928978;28;20130;-75
2022/04/12 02:10:26;;;;;;;10.05;3.90;;;;;;;5.91;39.48;94221.72;4929700;29;20027;-77
2022/04/12 02:12:52;;;;;;;6.10;3.90;;;;;;;6.07;39.37;94219.78;4922055;28;20110;-79
2022/04/12 02:15:18;;;;;;;4.97;2.95;;;;;;;6.25;38.89;94217.31;4929004;28;20051;-76
2022/04/12 02:17:43;;;;;;;7.85;3.30;;;;;;;6.12;38.79;94195.97;4926928;28;20690;-79
2022/04/12 02:20:09;;;;;;;5.35;3.00;;;;;;;6.24;38.92;94213.09;4941691;28;20618;-79
2022/04/12 02:22:37;;;;;;;6.05;3.20;;;;;;;6.36;38.67;94210.84;4919683;29;20036;-75
2022/04/12 02:25:06;;;;;;;6.18;3.47;;;;;;;6.48;38.38;94212.34;4929670;28;20056;-79
2022/04/12 02:27:31;;;;;;;6.22;3.50;;;;;;;6.29;38.44;94188.47;4924111;29;20098;-79
2022/04/12 02:29:57;;;;;;;5.97;3.88;;;;;;;6.34;38.24;94193.72;4928416;28;20554;-79
2022/04/12 02:32:22;;;;;;;4.93;3.10;;;;;;;6.30;38.20;94180.28;4925146;28;20043;-79
2022/04/12 02:34:47;;;;;;;6.25;3.20;;;;;;;6.48;38.14;94191.22;4938901;28;20427;-78
2022/04/12 02:37:13;;;;;;;6.60;3.67;;;;;;;6.58;38.06;94213.06;4928182;28;20039;-76
2022/04/12 02:39:38;;;;;;;4.63;2.80;;;;;;;6.54;38.10;94211.25;4924356;28;20422;-79
2022/04/12 02:42:04;;;;;;;5.15;2.78;;;;;;;6.56;38.13;94217.03;4927497;28;20048;-78
2022/04/12 02:44:30;;;;;;;4.70;3.25;;;;;;;6.62;37.52;94214.09;4927017;28;20143;-79
2022/04/12 02:46:55;;;;;;;6.88;3.40;;;;;;;6.68;37.25;94212.97;4945218;28;20030;-79
2022/04/12 02:49:21;;;;;;;7.30;3.58;;;;;;;6.57;37.08;94195.63;4926536;28;20510;-75
2022/04/12 02:51:46;;;;;;;6.03;3.72;;;;;;;6.51;37.35;94207.31;4923685;28;20082;-79
2022/04/12 02:54:15;;;;;;;4.50;2.97;;;;;;;6.58;37.75;94213.06;4931039;28;20040;-75
2022/04/12 02:56:40;;;;;;;5.75;3.40;;;;;;;6.42;37.85;94214.25;4930512;28;20465;-77
2022/04/12 02:59:06;;;;;;;6.05;3.58;;;;;;;6.28;37.80;94200.09;4927842;28;20059;-78
2022/04/12 03:01:31;;;;;;;5.68;3.10;;;;;;;6.27;37.92;94187.94;4941143;28;20034;-75
2022/04/12 03:03:57;;;;;;;6.10;3.60;;;;;;;6.25;37.74;94212.03;4923811;28;20190;-79
2022/04/12 03:06:23;;;;;;;8.10;3.88;;;;;;;6.37;37.61;94207.16;4924156;28;20047;-78
2022/04/12 03:08:48;;;;;;;9.80;3.65;;;;;;;6.36;37.29;94210.84;4931807;28;20094;-79
2022/04/12 03:11:14;;;;;;;7.22;3.90;;;;;;;6.38;38.20;94213.22;4927908;28;20035;-79
2022/04/12 03:13:39;;;;;;;5.03;3.63;;;;;;;6.42;38.19;94216.91;4923189;29;20054;-78
2022/04/12 03:16:05;;;;;;;4.93;2.97;;;;;;;6.43;38.17;94215.84;4927956;28;20402;-79
2022/04/12 03:18:30;;;;;;;4.07;2.83;;;;;;;6.39;38.05;94204.25;4927656;28;20089;-78
2022/04/12 03:20:55;;;;;;;4.78;2.80;;;;;;;6.38;37.93;94200.03;4927254;28;20063;-79
2022/04/12 03:23:21;;;;;;;3.50;2.63;;;;;;;6.44;37.84;94214.78;4926620;28;20151;-78
2022/04/12 03:25:46;;;;;;;4.32;3.13;;;;;;;6.42;37.65;94225.59;4927716;28;20035;-78
2022/04/12 03:28:12;;;;;;;5.97;2.45;;;;;;;6.44;38.17;94222.69;4926392;29;20035;-78
2022/04/12 03:30:37;;;;;;;4.13;2.65;;;;;;;6.48;38.32;94218.44;4929997;28;20036;-78
2022/04/12 03:33:03;;;;;;;6.38;3.00;;;;;;;6.48;38.89;94217.66;4924578;28;20744;-78
2022/04/12 03:35:29;;;;;;;5.35;3.00;;;;;;;6.54;38.55;94221.81;4927364;28;20118;-79
2022/04/12 03:38:00;;;;;;;6.07;2.63;;;;;;;6.48;38.32;94213.16;4925974;28;20115;-77
2022/04/12 03:40:27;;;;;;;4.88;2.25;;;;;;;6.51;38.61;94227.66;4930616;29;20039;-79
2022/04/12 03:42:53;;;;;;;4.55;2.60;;;;;;;6.48;38.66;94223.72;4933935;28;20039;-75
2022/04/12 03:45:19;;;;;;;3.58;2.30;;;;;;;6.44;38.78;94225.34;4931292;28;20078;-79
2022/04/12 03:47:44;;;;;;;5.50;2.55;;;;;;;6.33;38.96;94216.69;4929341;28;21071;-80
2022/04/12 03:50:10;;;;;;;5.38;2.90;;;;;;;6.35;38.68;94221.72;4938213;28;20043;-79
2022/04/12 03:52:35;;;;;;;8.27;3.70;;;;;;;6.25;38.95;94227.06;4932054;29;20566;-80
2022/04/12 03:55:01;;;;;;;8.93;3.15;;;;;;;5.94;39.49;94203.50;4931151;28;20046;-77
2022/04/12 03:57:27;;;;;;;6.57;3.92;;;;;;;6.11;40.04;94229.53;4927636;28;20071;-79
2022/04/12 03:59:52;;;;;;;7.32;3.78;;;;;;;5.99;40.00;94221.16;4930719;28;20035;-79
2022/04/12 04:02:17;;;;;;;8.55;3.83;;;;;;;5.92;40.20;94210.88;4929798;28;20062;-79
2022/04/12 04:04:43;;;;;;;8.65;4.63;;;;;;;5.99;40.49;94237.00;4929593;28;20032;-79
2022/04/12 04:07:08;;;;;;;7.82;3.90;;;;;;;5.83;40.67;94217.81;4932967;28;20117;-80
2022/04/12 04:09:34;;;;;;;4.90;3.10;;;;;;;6.06;40.53;94239.34;4930211;28;20464;-80
2022/04/12 04:12:03;;;;;;;7.75;4.13;;;;;;;6.08;40.55;94245.13;4945464;28;20723;-79
2022/04/12 04:14:31;;;;;;;5.50;3.53;;;;;;;5.87;40.81;94213.56;4927808;28;20042;-77
2022/04/12 04:16:57;;;;;;;7.35;3.67;;;;;;;5.93;40.72;94225.66;4930310;28;20062;-80
2022/04/12 04:19:23;;;;;;;5.20;3.40;;;;;;;6.07;40.59;94227.72;4924265;28;20027;-77
2022/04/12 04:21:48;;;;;;;4.75;3.13;;;;;;;6.17;40.75;94240.84;4931968;28;20093;-78
2022/04/12 04:24:15;;;;;;;7.78;3.15;;;;;;;6.13;41.02;94237.16;4928787;28;20138;-75
2022/04/12 04:26:40;;;;;;;7.25;3.50;;;;;;;6.07;41.01;94223.19;4943911;28;20035;-77
2022/04/12 04:29:06;;;;;;;9.05;4.00;;;;;;;6.24;40.86;94250.06;4932531;28;20039;-79
2022/04/12 04:31:32;;;;;;;9.90;4.10;;;;;;;6.10;41.35;94227.94;4928066;29;20023;-78
2022/04/12 04:33:57;;;;;;;9.52;4.93;;;;;;;6.18;41.16;94237.16;4928644;28;20504;-77
2022/04/12 04:36:23;;;;;;;18.23;7.63;;;;;;;6.31;41.17;94250.53;4929340;28;20050;-79
2022/04/12 04:38:48;;;;;;;30.50;10.55;;;;;;;6.38;40.75;94242.28;4931967;28;20035;-76
2022/04/12 04:41:14;;;;;;;17.95;7.60;;;;;;;6.58;40.36;94255.34;4939493;28;20043;-74
2022/04/12 04:43:39;;;;;;;15.77;7.32;;;;;;;6.55;40.27;94245.34;4936135;29;20542;-78
2022/04/12 04:46:05;;;;;;;18.55;7.38;;;;;;;6.07;41.05;94246.97;4938833;28;20087;-77
2022/04/12 04:48:30;;;;;;;11.43;6.93;;;;;;;5.72;41.66;94261.16;4928465;28;20043;-79
2022/04/12 04:50:55;;;;;;;11.88;5.93;;;;;;;5.29;42.66;94273.19;4930079;28;20035;-79
2022/04/12 04:53:21;;;;;;;14.20;5.88;;;;;;;5.84;42.05;94261.63;4927765;28;20550;-79
2022/04/12 04:55:47;;;;;;;12.43;6.13;;;;;;;6.11;41.77;94260.44;4933233;28;20563;-79
2022/04/12 04:58:13;;;;;;;10.30;5.47;;;;;;;6.46;41.28;94273.41;4925360;29;20031;-78
2022/04/12 05:00:38;;;;;;;10.52;6.03;;;;;;;5.93;41.57;94267.13;4929717;28;20031;-79
2022/04/12 05:03:04;;;;;;;18.45;7.30;;;;;;;6.29;41.44;94273.00;4923995;28;20573;-78
2022/04/12 05:05:30;;;;;;;10.70;6.90;;;;;;;6.54;41.16;94262.25;4928097;28;20476;-78
2022/04/12 05:07:56;;;;;;;11.55;6.28;;;;;;;6.79;40.87;94266.53;4930685;28;20494;-78
2022/04/12 05:10:30;;;;;;;10.43;6.82;;;;;;;6.22;40.99;94261.94;4924950;28;20042;-78
2022/04/12 05:12:57;;;;;;;28.20;10.48;;;;;;;6.37;41.77;94262.63;4936750;28;20190;-79
2022/04/12 05:15:22;;;;;;;16.40;6.80;;;;;;;6.89;40.26;94273.59;4931084;28;20039;-77
2022/04/12 05:17:50;;;;;;;9.95;6.63;;;;;;;7.03;40.15;94274.53;4925628;28;20817;-79
2022/04/12 05:20:16;;;;;;;11.18;6.35;;;;;;;7.16;39.44;94272.00;4928769;28;20048;-79
2022/04/12 05:22:41;;;;;;;14.20;6.53;;;;;;;7.17;39.08;94256.91;4928587;28;20515;-78
2022/04/12 05:25:07;;;;;;;10.45;6.38;;;;;;;7.13;39.12;94271.78;4932134;29;20494;-79
2022/04/12 05:27:33;;;;;;;8.93;5.93;;;;;;;6.96;39.71;94272.19;4934523;28;20042;-79
2022/04/12 05:30:00;;;;;;;10.63;5.88;;;;;;;6.77;40.27;94269.47;4928052;28;20066;-78
2022/04/12 05:32:25;;;;;;;10.40;6.47;;;;;;;6.34;40.50;94244.69;4928097;28;20043;-79
2022/04/12 05:34:51;;;;;;;15.43;6.65;;;;;;;6.49;41.00;94264.94;4921370;28;20734;-78
2022/04/12 05:37:17;;;;;;;10.60;5.90;;;;;;;6.79;40.37;94259.41;4931211;28;20760;-79
2022/04/12 05:39:43;;;;;;;12.80;7.10;;;;;;;6.96;40.29;94266.91;4939390;28;20044;-77
2022/04/12 05:42:09;;;;;;;12.45;7.30;;;;;;;7.01;40.73;94269.50;4930589;28;20124;-78
2022/04/12 05:44:34;;;;;;;16.55;7.25;;;;;;;6.16;42.20;94268.34;4930136;28;20585;-79
2022/04/12 05:47:01;;;;;;;14.52;7.50;;;;;;;6.00;42.58;94264.97;4928518;28;20642;-78
2022/04/12 05:49:27;;;;;;;11.38;6.88;;;;;;;6.15;42.51;94256.97;4927779;28;20130;-77
2022/04/12 05:51:53;;;;;;;13.02;7.55;;;;;;;6.26;41.82;94263.75;4929382;28;20036;-79
2022/04/12 05:54:18;;;;;;;11.77;7.03;;;;;;;6.37;41.87;94249.44;4926149;28;20040;-79
2022/04/12 05:56:44;;;;;;;16.40;7.60;;;;;;;5.79;43.23;94253.72;4926018;28;20039;-78
2022/04/12 05:59:09;;;;;;;12.80;7.57;;;;;;;5.90;43.54;94265.81;4930154;28;20046;-79
2022/04/12 06:01:35;;;;;;;14.98;7.43;;;;;;;5.80;44.05;94246.59;4925717;28;20119;-77
2022/04/12 06:04:00;;;;;;;20.75;7.50;;;;;;;6.28;43.66;94260.84;4942835;28;20099;-79
2022/04/12 06:06:27;;;;;;;13.38;7.30;;;;;;;6.53;42.40;94259.88;4925824;28;20501;-79
2022/04/12 06:08:53;;;;;;;14.45;8.25;;;;;;;6.63;42.33;94268.53;4931507;28;20420;-78
2022/04/12 06:11:18;;;;;;;22.77;8.27;;;;;;;7.02;40.69;94286.97;4922333;28;20043;-77
2022/04/12 06:13:44;;;;;;;13.95;6.88;;;;;;;7.14;41.46;94283.94;4928308;28;20110;-79
2022/04/12 06:16:09;;;;;;;11.98;6.72;;;;;;;7.36;40.03;94281.59;4929315;28;20034;-79
2022/04/12 06:18:35;;;;;;;14.02;7.43;;;;;;;7.56;39.78;94289.31;4927422;28;20122;-78
2022/04/12 06:21:01;;;;;;;15.52;9.80;;;;;;;6.78;40.71;94292.19;4927599;28;20047;-78
2022/04/12 06:23:28;;;;;;;6.57;4.13;;;;;;;7.21;37.86;94289.69;4924212;28;20047;-79
2022/04/12 06:25:54;;;;;;;9.20;2.95;;;;;;;7.15;36.40;94277.56;4934302;28;20038;-78
2022/04/12 06:28:19;;;;;;;4.82;2.60;;;;;;;7.49;36.10;94280.91;4922458;28;20023;-78
2022/04/12 06:30:44;;;;;;;10.43;3.17;;;;;;;7.48;36.51;94276.69;4926238;28;20032;-78
2022/04/12 06:33:10;;;;;;;5.93;2.95;;;;;;;7.86;35.41;94253.75;4926256;28;20078;-77
2022/04/12 06:35:35;;;;;;;7.03;2.80;;;;;;;8.24;35.44;94288.22;4929088;28;20639;-77
2022/04/12 06:38:02;;;;;;;5.97;2.78;;;;;;;7.77;34.64;94273.22;4928672;28;20067;-78
2022/04/12 06:40:28;;;;;;;3.40;2.60;;;;;;;7.87;33.49;94259.84;4928929;29;20035;-78
2022/04/12 06:42:53;;;;;;;3.70;2.70;;;;;;;7.93;34.23;94295.78;4919532;28;20047;-78
2022/04/12 06:45:19;;;;;;;4.43;3.03;;;;;;;7.90;33.78;94291.06;4915757;28;20331;-77
2022/04/12 06:47:53;;;;;;;4.93;3.53;;;;;;;8.06;33.68;94284.50;4934934;28;20336;-79
2022/04/12 06:50:19;;;;;;;5.30;2.83;;;;;;;8.21;34.24;94300.19;4923449;28;20054;-79
2022/04/12 06:52:44;;;;;;;3.92;2.55;;;;;;;8.18;32.92;94292.78;4926665;28;20026;-78
2022/04/12 06:55:10;;;;;;;6.05;2.90;;;;;;;7.92;33.28;94273.03;4924997;28;20031;-77
2022/04/12 06:57:37;;;;;;;3.25;2.50;;;;;;;7.71;33.05;94267.16;4926846;28;20035;-78
2022/04/12 07:00:08;;;;;;;7.63;2.55;;;;;;;7.83;33.30;94301.19;4929881;28;20308;-80
2022/04/12 07:02:33;;;;;;;5.70;2.45;;;;;;;7.83;33.46;94301.97;4922533;28;20122;-78
2022/04/12 07:04:59;;;;;;;4.47;2.58;;;;;;;7.44;33.98;94267.72;4922542;28;20041;-77
2022/04/12 07:07:24;;;;;;;2.72;2.05;;;;;;;7.62;34.20;94292.69;4928533;29;20063;-79
2022/04/12 07:09:50;;;;;;;2.72;2.25;;;;;;;7.71;33.88;94289.13;4939313;28;20426;-77
2022/04/12 07:12:15;;;;;;;3.42;2.15;;;;;;;7.95;33.17;94277.75;4916119;28;20414;-78
2022/04/12 07:14:40;;;;;;;2.88;2.00;;;;;;;7.91;32.47;94289.97;4925937;28;20051;-78
2022/04/12 07:17:06;;;;;;;6.05;2.63;;;;;;;7.90;33.09;94301.66;4935323;28;20158;-79
2022/04/12 07:19:31;;;;;;;2.38;2.17;;;;;;;7.73;32.81;94269.56;4921388;28;20125;-75
2022/04/12 07:21:57;;;;;;;3.42;2.17;;;;;;;8.03;33.14;94287.69;4932944;28;20106;-79
2022/04/12 07:24:26;;;;;;;3.35;1.88;;;;;;;7.97;31.21;94288.84;4929639;28;20058;-74
2022/04/12 07:26:51;;;;;;;2.58;2.08;;;;;;;7.89;31.90;94284.16;4942363;28;20472;-78
2022/04/12 07:29:17;;;;;;;4.80;2.20;;;;;;;7.32;31.96;94285.88;4929998;28;20047;-78
2022/04/12 07:31:42;;;;;;;2.92;1.80;;;;;;;7.57;32.33;94290.09;4932798;28;20027;-78
2022/04/12 07:34:09;;;;;;;5.07;2.60;;;;;;;7.60;32.00;94303.56;4923708;28;20504;-77
2022/04/12 07:36:39;;;;;;;1.88;1.65;;;;;;;7.73;31.51;94277.50;4940468;28;20166;-78
2022/04/12 07:39:05;;;;;;;2.47;2.10;;;;;;;7.71;31.67;94294.44;4931345;28;20124;-78
2022/04/12 07:41:31;;;;;;;3.85;1.58;;;;;;;7.78;32.61;94298.63;4922989;28;20079;-78
2022/04/12 07:43:56;;;;;;;1.83;1.45;;;;;;;7.83;31.73;94274.72;4932220;28;20154;-79
2022/04/12 07:46:22;;;;;;;2.85;1.50;;;;;;;7.97;31.70;94296.81;4925020;28;20460;-79
2022/04/12 07:48:47;;;;;;;1.80;1.52;;;;;;;7.70;31.25;94292.06;4932668;28;20067;-79
2022/04/12 07:51:12;;;;;;;3.25;1.60;;;;;;;7.57;31.78;94304.13;4927225;28;20096;-78
2022/04/12 07:53:38;;;;;;;3.30;1.45;;;;;;;7.52;31.26;94290.16;4930991;28;20047;-79
2022/04/12 07:56:04;;;;;;;3.03;1.90;;;;;;;7.54;31.61;94261.53;4926622;28;20118;-79
2022/04/12 07:58:29;;;;;;;2.55;1.80;;;;;;;7.75;32.64;94285.94;4925340;28;20242;-77
2022/04/12 08:00:55;;;;;;;2.30;1.75;;;;;;;7.67;32.06;94296.06;4899462;28;20800;-80
2022/04/12 08:03:21;;;;;;;2.75;1.27;;;;;;;7.49;31.80;94290.69;4929209;28;20040;-79
2022/04/12 08:05:47;;;;;;;2.50;1.60;;;;;;;7.64;32.08;94283.38;4921628;28;20031;-79
2022/04/12 08:08:13;;;;;;;3.05;1.60;;;;;;;7.81;32.49;94287.47;4925664;28;20113;-78
2022/04/12 08:10:38;;;;;;;3.92;1.50;;;;;;;7.76;31.88;94275.06;4928921;28;20285;-79
2022/04/12 08:13:04;;;;;;;3.35;1.88;;;;;;;7.79;32.04;94279.00;4921238;28;20581;-75
2022/04/12 08:15:29;;;;;;;2.38;1.75;;;;;;;7.71;31.66;94277.75;4929460;28;20043;-79
2022/04/12 08:17:54;;;;;;;3.85;2.00;;;;;;;7.43;32.35;94268.81;4926212;28;20460;-77
2022/04/12 08:20:20;;;;;;;4.47;2.30;;;;;;;7.50;32.05;94271.91;4928603;28;20439;-79
2022/04/12 08:22:45;;;;;;;3.13;1.55;;;;;;;7.47;32.23;94261.88;4920163;28;20298;-78
2022/04/12 08:25:11;;;;;;;3.97;1.65;;;;;;;7.59;32.83;94272.84;4926546;28;20106;-79
2022/04/12 08:27:38;;;;;;;3.42;1.90;;;;;;;7.73;32.70;94264.28;4919149;28;20576;-75
2022/04/12 08:30:07;;;;;;;5.05;1.75;;;;;;;7.62;32.11;94237.09;4943479;28;20134;-77
2022/04/12 08:32:34;;;;;;;2.60;1.80;;;;;;;7.75;30.98;94267.41;4925516;28;20742;-78
2022/04/12 08:35:00;;;;;;;3.03;2.30;;;;;;;7.76;32.23;94259.19;4927887;28;20050;-78
2022/04/12 08:37:25;;;;;;;5.38;1.95;;;;;;;7.91;32.20;94250.25;4921307;28;21033;-79
2022/04/12 08:39:51;;;;;;;3.40;2.25;;;;;;;8.04;32.60;94246.91;4926708;28;20808;-78
2022/04/12 08:42:17;;;;;;;3.55;2.40;;;;;;;7.99;32.21;94245.09;4925309;28;20418;-78
2022/04/12 08:44:46;;;;;;;3.10;1.85;;;;;;;7.69;31.67;94250.75;4929309;28;20060;-79
2022/04/12 08:47:14;;;;;;;4.47;2.38;;;;;;;7.60;32.23;94250.59;4934753;28;20031;-77
2022/04/12 08:49:40;;;;;;;4.47;2.00;;;;;;;7.59;32.19;94243.72;4881944;28;20105;-78
2022/04/12 08:52:11;;;;;;;3.50;2.20;;;;;;;7.70;32.29;94245.19;4938619;28;20826;-78
2022/04/12 08:54:44;;;;;;;3.85;2.25;;;;;;;7.68;32.15;94242.03;4933426;28;20102;-79
2022/04/12 08:57:11;;;;;;;3.97;2.20;;;;;;;7.83;32.61;94237.63;4942410;28;20023;-78
2022/04/12 08:59:38;;;;;;;4.13;2.10;;;;;;;7.97;32.14;94246.47;4931636;28;20054;-78
2022/04/12 09:02:07;;;;;;;3.50;2.17;;;;;;;8.02;31.92;94238.47;4929317;28;20922;-77
2022/04/12 09:04:33;;;;;;;5.68;2.13;;;;;;;7.81;31.59;94208.81;4929993;28;20070;-79
2022/04/12 09:06:59;;;;;;;8.43;2.55;;;;;;;8.03;32.23;94218.81;4929875;28;20506;-75
2022/04/12 09:09:29;;;;;;;6.55;2.65;;;;;;;8.24;33.03;94227.28;4930989;28;20479;-80
2022/04/12 09:12:06;;;;;;;5.68;2.33;;;;;;;8.25;32.02;94226.19;4932979;29;20015;-79
2022/04/12 09:14:43;;;;;;;3.90;1.90;;;;;;;8.19;32.36;94219.41;4941934;28;20051;-74
2022/04/12 09:17:14;;;;;;;4.88;2.10;;;;;;;8.22;32.30;94218.84;4939498;28;20043;-78
2022/04/12 09:19:48;;;;;;;3.63;2.03;;;;;;;8.23;32.79;94210.59;4930014;28;20039;-78
2022/04/12 09:22:18;;;;;;;6.15;1.85;;;;;;;8.44;32.90;94225.09;4943552;28;20051;-79
2022/04/12 09:25:04;;;;;;;4.38;2.00;;;;;;;8.65;32.74;94214.19;4925381;28;20573;-77
2022/04/12 09:27:32;;;;;;;3.50;1.90;;;;;;;8.80;32.14;94203.31;4924640;28;20035;-80
2022/04/12 09:30:04;;;;;;;4.40;2.05;;;;;;;8.80;31.53;94213.91;4929049;29;20110;-77
2022/04/12 09:32:35;;;;;;;2.33;1.52;;;;;;;8.73;32.98;94185.13;4942930;28;20039;-78
2022/04/12 09:35:00;;;;;;;1.92;1.50;;;;;;;8.93;32.16;94197.22;4931122;28;20044;-79
2022/04/12 09:37:33;;;;;;;3.17;2.78;;;;;;;8.87;32.22;94199.19;4922810;28;20406;-78
2022/04/12 09:39:59;;;;;;;4.90;2.45;;;;;;;9.07;32.08;94194.59;4940387;28;20055;-78
2022/04/12 09:42:52;;;;;;;1.95;1.52;;;;;;;9.18;32.87;94194.16;4926072;28;20027;-79
2022/04/12 09:45:26;;;;;;;2.25;1.48;;;;;;;9.06;32.08;94187.69;4932519;29;20470;-78
2022/04/12 09:47:55;;;;;;;2.73;2.03;;;;;;;9.22;32.25;94189.81;4924383;28;20057;-77
2022/04/12 09:50:21;;;;;;;1.80;1.55;;;;;;;9.35;31.68;94185.56;4921393;28;20486;-78
2022/04/12 09:52:53;;;;;;;3.50;1.60;;;;;;;9.43;32.15;94185.69;4919298;28;20039;-78
2022/04/12 09:55:46;;;;;;;3.78;1.52;;;;;;;9.62;32.35;94176.81;4919625;28;20043;-78
2022/04/12 09:58:15;;;;;;;3.97;1.63;;;;;;;9.61;30.95;94180.53;4930234;28;20069;-79
2022/04/12 10:00:42;;;;;;;3.75;1.70;;;;;;;9.68;31.41;94167.66;4927804;28;20066;-79
2022/04/12 10:03:13;;;;;;;1.60;1.50;;;;;;;9.72;30.73;94163.31;4932580;28;20067;-78
2022/04/12 10:05:39;;;;;;;1.70;1.55;;;;;;;9.44;30.80;94160.69;4930276;28;20039;-74
2022/04/12 10:08:06;;;;;;;2.40;1.92;;;;;;;9.25;31.19;94136.13;4931781;28;20035;-77
2022/04/12 10:10:32;;;;;;;3.53;1.45;;;;;;;9.37;31.40;94139.09;4940353;28;20037;-74
2022/04/12 10:12:59;;;;;;;4.47;1.25;;;;;;;9.47;31.37;94153.22;4931699;28;20102;-79
2022/04/12 10:15:27;;;;;;;1.70;1.00;;;;;;;9.51;32.11;94151.56;4928739;28;20624;-77
2022/04/12 10:17:53;;;;;;;3.45;1.08;;;;;;;9.63;32.16;94157.16;4932407;28;20027;-78
2022/04/12 10:20:19;;;;;;;1.95;1.63;;;;;;;9.71;31.99;94121.91;4928683;28;20047;-74
2022/04/12 10:22:45;;;;;;;2.22;1.40;;;;;;;9.92;30.88;94131.00;4932568;28;20106;-78
2022/04/12 10:25:15;;;;;;;2.33;1.30;;;;;;;9.93;32.00;94139.75;4931758;28;20276;-76
2022/04/12 10:27:41;;;;;;;4.57;1.20;;;;;;;10.05;32.13;94135.47;4942179;28;20393;-77
2022/04/12 10:30:16;;;;;;;1.70;1.35;;;;;;;10.16;30.47;94128.84;4928548;28;20020;-79
2022/04/12 10:33:08;;;;;;;2.25;1.17;;;;;;;10.32;30.35;94126.56;4943019;28;20384;-78
2022/04/12 10:35:42;;;;;;;4.55;2.55;;;;;;;10.42;31.03;94126.34;4923192;28;20415;-79
2022/04/12 10:38:12;;;;;;;3.40;1.33;;;;;;;10.56;30.81;94119.06;4919101;28;20098;-78
2022/04/12 10:40:43;;;;;;;2.83;1.17;;;;;;;10.41;30.02;94110.72;4924905;28;20980;-78
2022/04/12 10:43:11;;;;;;;3.22;1.08;;;;;;;10.51;30.44;94091.84;4936623;28;20553;-79
2022/04/12 10:45:44;;;;;;;1.25;1.13;;;;;;;10.59;31.56;94102.53;4939426;28;20109;-78
2022/04/12 10:48:19;;;;;;;2.00;1.38;;;;;;;10.81;30.55;94090.28;4927602;28;20518;-79
2022/04/12 10:50:45;;;;;;;;;;;;;;;10.88;30.10;94111.88;4939325;28;20047;-77
2022/04/12 10:53:11;;;;;;;1.83;1.25;;;;;;;10.52;29.26;94072.13;4926843;28;20025;-77
2022/04/12 10:55:41;;;;;;;3.20;1.70;;;;;;;10.79;30.94;94097.75;4928929;28;20044;-77
2022/04/12 10:58:12;;;;;;;3.97;1.35;;;;;;;11.04;30.68;94095.22;4943709;28;20058;-79
2022/04/12 11:00:41;;;;;;;1.27;1.10;;;;;;;10.89;29.99;94082.31;4929291;28;20445;-79
2022/04/12 11:03:07;;;;;;;1.35;1.10;;;;;;;11.12;30.35;94099.75;4930075;29;20446;-79
2022/04/12 11:05:35;;;;;;;2.25;1.13;;;;;;;11.01;30.25;94100.34;4928962;28;20040;-78
2022/04/12 11:08:05;;;;;;;4.35;1.50;;;;;;;11.06;30.20;94093.00;4928140;28;20402;-79
2022/04/12 11:10:30;;;;;;;3.35;1.77;;;;;;;11.05;31.45;94096.00;4928758;28;20050;-78
2022/04/12 11:13:05;;;;;;;1.20;1.05;;;;;;;11.28;30.34;94076.16;4918905;28;20043;-79
2022/04/12 11:15:32;;;;;;;4.95;1.38;;;;;;;11.37;29.12;94076.94;4924759;28;20043;-77
2022/04/12 11:18:08;;;;;;;2.08;1.25;;;;;;;11.50;30.11;94085.88;4919826;28;20023;-78
2022/04/12 11:20:35;;;;;;;1.73;1.17;;;;;;;11.45;29.05;94078.84;4927602;28;20047;-77
2022/04/12 11:23:08;;;;;;;2.88;1.05;;;;;;;11.11;29.29;94021.00;4926604;28;21304;-78
2022/04/12 11:25:35;;;;;;;5.13;2.95;;;;;;;11.41;29.12;94069.91;4924595;28;20494;-78
2022/04/12 11:28:01;;;;;;;1.95;1.10;;;;;;;11.53;29.17;94080.00;4920422;28;20059;-79
2022/04/12 11:30:27;;;;;;;4.30;1.02;;;;;;;11.54;29.77;94062.91;4923347;28;20379;-77
2022/04/12 11:32:54;;;;;;;3.88;1.52;;;;;;;11.53;30.78;94043.47;4926833;29;20586;-77
2022/04/12 11:35:20;;;;;;;7.85;3.33;;;;;;;11.47;29.92;94059.88;4923956;28;20078;-77
2022/04/12 11:37:46;;;;;;;1.98;1.08;;;;;;;11.46;30.34;94056.44;4922508;28;20074;-75
2022/04/12 11:40:12;;;;;;;2.60;1.17;;;;;;;11.88;30.33;94046.91;4928643;28;20149;-77